Nearby METAR Reports

 

KHFD - Hartford/Brainar, Connecticut, USA
Distance from station: NW 13mi, 20km
Updated: Tue, 17-Jul-2018 10:16pm EDT
Overcast
Overcast
 Wind from S
Wind: S 7 mph , 11 km/h
Temperature: 72°F , 22°C
Dew Point: 72°F , 22°C
Humidity: 100%
Barometer: 29.81 inHg , 1009.5 hPa
Clouds: Overcast
Visibility: 10 miles , 16 km
Cloud details: Overcast 1300 ft
2018/07/18 02:16 KHFD 180216Z 17006KT 10SM OVC013 22/22 A2981 RMK AO2 T02220217
KSNC - Chester, Connecticut, USA
Distance from station: S 15mi, 23km
Updated: Tue, 17-Jul-2018 10:15pm EDT
Rain, Overcast
Rain, Overcast
 Wind from NW
Wind: NW 3 mph , 6 km/h
Temperature: 70°F , 21°C
Dew Point: 70°F , 21°C
Humidity: 100%
Barometer: 29.84 inHg , 1010.5 hPa
Summary: Rain
Clouds: Overcast
Visibility: 3 miles , 5 km
Cloud details: Overcast 600 ft
2018/07/18 02:15 KSNC 180215Z AUTO 31003KT 3SM RA OVC006 21/21 A2984 RMK AO2
 
KMMK - Meriden, Connecticut, USA
Distance from station: WSW 18mi, 30km
Updated: Tue, 17-Jul-2018 9:53pm EDT
Overcast
Overcast
 Wind from calm
Wind: Calm
Temperature: 70°F , 21°C
Dew Point: 70°F , 21°C
Humidity: 100%
Barometer: 29.83 inHg , 1010.2 hPa
Clouds: Overcast
Visibility: 10 miles , 16 km
Cloud details: Overcast 1200 ft
2018/07/18 01:53 KMMK 180153Z AUTO 00000KT 10SM OVC012 21/21 A2983 RMK AO2 RAE27 SLP100 P0002 T02110206
KIJD - Willimantic, Connecticut, USA
Distance from station: NE 19mi, 31km
Updated: Tue, 17-Jul-2018 10:11pm EDT
Heavy rain, Mist, Overcast
Heavy rain, Mist, Overcast
 Wind from calm
Wind: Calm
Temperature: 72°F , 22°C
Dew Point: 70°F , 21°C
Humidity: 94%
Barometer: 29.82 inHg , 1009.8 hPa
Summary: Heavy rain, Mist
Clouds: Overcast
Visibility: 3 miles , 5 km
Cloud details: Partly cloudy 700 ft
Mostly cloudy 1000 ft
Overcast 9500 ft
2018/07/18 02:11 KIJD 180211Z AUTO 00000KT 3SM +RA BR SCT007 BKN010 OVC095 22/21 A2982 RMK AO2 T02170211 PNO $
 
KBDL - Windsor Locks, Connecticut, USA
Distance from station: NNW 25mi, 41km
Updated: Tue, 17-Jul-2018 9:51pm EDT
Overcast
Overcast
 Wind from S
Wind: S 7 mph , 11 km/h
Temperature: 72°F , 22°C
Dew Point: 70°F , 21°C
Humidity: 94%
Barometer: 29.81 inHg , 1009.5 hPa
Clouds: Overcast
Visibility: 10 miles , 16 km
Cloud details: Partly cloudy 400 ft
Mostly cloudy 1200 ft
Overcast 3500 ft
2018/07/18 01:51 KBDL 180151Z 19006KT 10SM SCT004 BKN012 OVC035 22/21 A2981 RMK AO2 SLP095 T02170211 $
KGON - Groton/New Londo, Connecticut, USA
Distance from station: SE 29mi, 47km
Updated: Tue, 17-Jul-2018 10:30pm EDT
Few Clouds
Few Clouds
 Wind from NW
Wind: NW 7 mph , 11 km/h
Temperature: 72°F , 22°C
Dew Point: 70°F , 21°C
Humidity: 94%
Barometer: 29.81 inHg , 1009.5 hPa
Clouds: Few Clouds
Visibility: 10 miles , 16 km
Cloud details: Few Clouds 700 ft
Few Clouds 1200 ft
2018/07/18 02:30 KGON 180230Z AUTO 31006KT 10SM FEW007 FEW012 22/21 A2981 RMK AO2 T02170206 $
 
KHVN - New Haven/Tweed, Connecticut, USA
Distance from station: SW 30mi, 48km
Updated: Tue, 17-Jul-2018 10:30pm EDT
Overcast
Overcast
 Wind from varies
Wind: varies 5 mph , 7 km/h
Temperature: 72°F , 22°C
Dew Point: 72°F , 22°C
Humidity: 100%
Barometer: 29.82 inHg , 1009.8 hPa
Clouds: Overcast
Visibility: 10 miles , 16 km
Cloud details: Few Clouds 500 ft
Mostly cloudy 800 ft
Overcast 2100 ft
2018/07/18 02:30 KHVN 180230Z AUTO VRB04KT 10SM FEW005 BKN008 OVC021 22/22 A2982 RMK AO2 RAE29 P0044 T02220217
KOXC - Oxford/Waterbury, Connecticut, USA
Distance from station: WSW 34mi, 55km
Updated: Tue, 17-Jul-2018 10:30pm EDT
Light rain, Mist, Overcast
Light rain, Mist, Overcast
 Wind from calm
Wind: Calm
Temperature: 70°F , 21°C
Dew Point: 70°F , 21°C
Humidity: 100%
Barometer: 29.85 inHg , 1010.8 hPa
Summary: Light rain, Mist
Clouds: Overcast
Visibility: 10 miles , 16 km
Cloud details: Mostly cloudy 200 ft
Overcast 6500 ft
2018/07/18 02:30 KOXC 180230Z AUTO 00000KT 10SM -RA BR BKN002 OVC065 21/21 A2985 RMK AO2 P0000
 
KWST - Westerly, Rhode Island, USA
Distance from station: ESE 40mi, 64km
Updated: Tue, 17-Jul-2018 10:27pm EDT
Few Clouds
Few Clouds
 Wind from varies
Wind: varies 3 mph , 6 km/h
Temperature: 72°F , 22°C
Dew Point: 72°F , 22°C
Humidity: 100%
Barometer: 29.82 inHg , 1009.8 hPa
Clouds: Few Clouds
Visibility: 10 miles , 16 km
Cloud details: Few Clouds 600 ft
2018/07/18 02:27 KWST 180227Z AUTO VRB03KT 10SM FEW006 22/22 A2982 RMK AO2 T02220217 $
KBAF - Westfield, Massachusetts, USA
Distance from station: NNW 41mi, 66km
Updated: Tue, 17-Jul-2018 10:01pm EDT
Mostly cloudy
Mostly cloudy
 Wind from S
Wind: S 5 mph , 7 km/h
Temperature: 70°F , 21°C
Dew Point: 70°F , 21°C
Humidity: 100%
Barometer: 29.81 inHg , 1009.5 hPa
Clouds: Mostly cloudy
Visibility: 10 miles , 16 km
Cloud details: Mostly cloudy 400 ft
Mostly cloudy 3000 ft
2018/07/18 02:01 KBAF 180201Z 17004KT 10SM BKN004 BKN030 21/21 A2981 RMK AO2 T02110211
 
KCEF - Chicopee/Westove, Massachusetts, USA
Distance from station: N 42mi, 67km
Updated: Tue, 17-Jul-2018 9:56pm EDT
Overcast
Overcast
 Wind from SW
Wind: SW 6 mph , 9 km/h
Temperature: 72°F , 22°C
Dew Point: 70°F , 21°C
Humidity: 94%
Barometer: 29.81 inHg , 1009.5 hPa
Clouds: Overcast
Visibility: 10 miles , 16 km
Cloud details: Mostly cloudy 500 ft
Overcast 3000 ft
2018/07/18 01:56 KCEF 180156Z 22005KT 10SM BKN005 OVC030 22/21 A2981 RMK AO2A SLP099 T02160211
KBDR - Bridgeport, Connecticut, USA
Distance from station: SW 44mi, 72km
Updated: Tue, 17-Jul-2018 10:21pm EDT
Light rain, Mist, Overcast
Light rain, Mist, Overcast
 Wind from W
Wind: W 6 mph , 9 km/h
Temperature: 72°F , 22°C
Dew Point: 70°F , 21°C
Humidity: 94%
Barometer: 29.82 inHg , 1009.8 hPa
Summary: Light rain, Mist
Clouds: Overcast
Visibility: 4 miles , 6 km
Cloud details: Few Clouds 2900 ft
Mostly cloudy 4300 ft
Overcast 7000 ft
2018/07/18 02:21 KBDR 180221Z AUTO 26005KT 4SM -RA BR FEW029 BKN043 OVC070 22/21 A2982 RMK AO2 P0023 T02220211
 
KHTO - East Hampton, New York, USA
Distance from station: SSE 46mi, 74km
Updated: Tue, 17-Jul-2018 10:15pm EDT
Clear
Clear
 Wind from calm
Wind: Calm
Temperature: 68°F , 20°C
Dew Point: 68°F , 20°C
Humidity: 100%
Barometer: 29.81 inHg , 1009.5 hPa
Clouds: Clear
Visibility: 10 miles , 16 km
2018/07/18 02:15 KHTO 180215Z AUTO 00000KT 10SM CLR 20/20 A2981 RMK AO2 T02030198
KMTP - Montauk, New York, USA
Distance from station: SE 47mi, 76km
Updated: Tue, 17-Jul-2018 9:54pm EDT

 Wind from W
Wind: W 3 mph , 6 km/h
Temperature: 70°F , 21°C
Dew Point: 70°F , 21°C
Humidity: 100%
Barometer: 29.82 inHg , 1009.8 hPa
2018/07/18 01:54 KMTP 180154Z AUTO 26003KT 21/21 A2982 RMK AO1 SLP098 T02110211